Arvada, CO

4:22 PM MDT on September 18, 2014 (GMT -0600)
Centennial | Change Station
CLOSE
Current Station
Airport
Location: Denver Centennial,
Elevation: 5883 ft
Nearby Weather Stations

Elev 5883 ft 39.56 °N, 104.85 °W | Updated 29 minutes ago

Partly Cloudy
Partly Cloudy
86 °F
Feels Like 86 °F
N
7
Wind Variable Wind from ESE

Today
High -- | Low -- °F
--% Chance of Precip.
Yesterday
High -- | Low -- °F
Precip. -- in
6:44 AM 7:03 PM
Waning Crescent, 24% visible
Pressure 29.77 in
Visibility 10.0 miles
Clouds Few 14000 ft
Dew Point 30 °F
Humidity 13%
Rainfall 0.00 in
Snow Depth 0 in , 0 in , 0 in
UV 4 out of 12
Pollen 7.70 out of 12
Ozone Good
PM2.5 Good
Flu Activity Not available.
METAR KAPA 182153Z 12006KT 10SM FEW140 30/M01 A2999 RMK AO2 SLP079 T03001011

More Conditions Fewer Conditions

Pressure 29.77 in
Visibility 10.0 miles
Clouds Few 14000 ft
Dew Point 30 °F
Humidity 13%
Rainfall 0.00 in
Snow Depth 0 in , 0 in , 0 in
UV 4 out of 12
Pollen 7.70 out of 12
Ozone Good
PM2.5 Good
Flu Activity Not available.
METAR KAPA 182153Z 12006KT 10SM FEW140 30/M01 A2999 RMK AO2 SLP079 T03001011

More Conditions Fewer Conditions

10-Day Weather Forecast

Almanac

Astronomy

Sep. 18, 2014 Rise Set
Actual Time 6:44 AM MDT 7:03 PM MDT
Civil Twilight 6:17 AM MDT 7:30 PM MDT
Nautical Twilight 5:45 AM MDT 8:02 PM MDT
Astronomical Twilight 5:13 AM MDT 8:34 PM MDT
Moon 1:38 AM MDT 3:56 PM MDT
Length of Visible Light 13h 13m
Length of Day
12h 19m
Tomorrow will be 2m 35s shorter.
Waning Crescent, 24% of the Moon is Illuminated
Today
Waning Crescent
Sep 24
New
Oct 1
First Quarter
Oct 8
Full
Oct 15
Last Quarter

Today's Extremes

State Highs State Lows

Community

WunderPhotos

Upload Photos

1,754,457 photos uploaded!

WunderBlogs® & News

Nearby

Air Quality

  Air Quality AQ Index Pollutant
Yesterday Good
OZONE
Yesterday Good
PM10
Current Good
OZONE
Current Good
PM2.5
Thursday Moderate
OZONE
Thursday Good
PM2.5
Friday Moderate
OZONE
Friday Good
PM2.5

Snow Depth

Station Depth Elevation
Bear RIver 0 in 9080 ft
University Camp 0 in 10300 ft
Vallecito 0 in 10880 ft
Bison Lake 0 in 10880 ft
Rough And Tumble 1 in 10360 ft

Earthquake Activity

City Distance Mag. Time & Date
No recent earthquake activity has been reported nearby.
Minimum magnitude displayed is 2.5.

Coastal Water Temperatures

Place Temperature
No Stations Reporting

Nearby Weather Stations